Lelystad, Netherlands

7:38 AM CET on March 06, 2015 (GMT +0100)
Lelystad Golfpark | Change Station
CLOSE
Current Station
Personal Weather Station
Location: Lelystad, Flevoland
Elevation: -10 ft
Nearby Weather Stations

Elev -10 ft 52.53 °N, 5.45 °E | Updated 13 seconds ago

Overcast
Overcast
41.5 °F
Feels Like 37 °F
N
6.9
Wind Variable Wind from West
Gusts 10.8 mph

Today
High -- | Low -- °F
--% Chance of Precip.
Yesterday
High -- | Low -- °F
Precip. -- in
7:13 AM 6:25 PM
Full, 100% visible
Pressure 30.57 in
Visibility 6.2 miles
Clouds Overcast 4100 ft
Windchill 37 °F
Dew Point 36 °F
Humidity 82%
Rainfall in
Snow Depth Not available.
UV 0 out of 12
Pollen Not available.
Air Quality Not available.
Flu Activity Not available.
METAR EHDL 060625Z AUTO 21006KT 9999 OVC041 04/02 Q1035 BLU

More Conditions Fewer Conditions

Pressure 30.57 in
Visibility 6.2 miles
Clouds Overcast 4100 ft
Windchill 37 °F
Dew Point 36 °F
Humidity 82%
Rainfall in
Snow Depth Not available.
UV 0 out of 12
Pollen Not available.
Air Quality Not available.
Flu Activity Not available.
METAR EHDL 060625Z AUTO 21006KT 9999 OVC041 04/02 Q1035 BLU

More Conditions Fewer Conditions

10-Day Weather Forecast

Almanac

Astronomy

Mar. 06, 2015 Rise Set
Actual Time
Civil Twilight
Nautical Twilight
Astronomical Twilight
Moon
Length of Visible Light
Length of Day
Tomorrow will be .
, % of the Moon is Illuminated

Today's Extremes

Country Highs Country Lows

Community

WunderPhotos

Upload Photos

1,803,195 photos uploaded!

WunderBlogs® & News

Nearby

Air Quality

  Air Quality AQ Index Pollutant
Not available.

Snow Depth

Station Depth Elevation

Earthquake Activity

City Distance Mag. Time & Date
Minimum magnitude displayed is 2.5.

Coastal Water Temperatures

Place Temperature

Nearby Weather Stations